sensor_id;sensor_type;location;lat;lon;timestamp;P1;durP1;ratioP1;P2;durP2;ratioP2
41721;SDS011;27407;24.142;-110.310;2024-02-23T00:01:43;13.10;;;1.30;;
41721;SDS011;27407;24.142;-110.310;2024-02-23T00:04:10;19.75;;;2.47;;
41721;SDS011;27407;24.142;-110.310;2024-02-23T00:06:37;8.07;;;1.70;;
41721;SDS011;27407;24.142;-110.310;2024-02-23T00:09:04;15.20;;;1.92;;
41721;SDS011;27407;24.142;-110.310;2024-02-23T00:11:30;14.57;;;1.52;;
41721;SDS011;27407;24.142;-110.310;2024-02-23T00:14:05;13.45;;;1.98;;
41721;SDS011;27407;24.142;-110.310;2024-02-23T00:16:36;24.40;;;2.50;;
41721;SDS011;27407;24.142;-110.310;2024-02-23T00:19:07;2.85;;;0.82;;
41721;SDS011;27407;24.142;-110.310;2024-02-23T00:21:37;34.30;;;2.33;;
41721;SDS011;27407;24.142;-110.310;2024-02-23T00:24:07;14.32;;;1.50;;
41721;SDS011;27407;24.142;-110.310;2024-02-23T00:26:34;11.15;;;1.50;;
41721;SDS011;27407;24.142;-110.310;2024-02-23T00:29:02;11.55;;;1.65;;
41721;SDS011;27407;24.142;-110.310;2024-02-23T00:31:28;27.98;;;2.42;;
41721;SDS011;27407;24.142;-110.310;2024-02-23T00:33:55;13.25;;;1.50;;
41721;SDS011;27407;24.142;-110.310;2024-02-23T00:36:22;9.95;;;1.30;;
41721;SDS011;27407;24.142;-110.310;2024-02-23T00:38:48;17.50;;;1.33;;
41721;SDS011;27407;24.142;-110.310;2024-02-23T00:41:15;24.77;;;2.58;;
41721;SDS011;27407;24.142;-110.310;2024-02-23T00:43:41;10.38;;;1.58;;
41721;SDS011;27407;24.142;-110.310;2024-02-23T00:46:08;9.85;;;1.35;;
41721;SDS011;27407;24.142;-110.310;2024-02-23T00:48:35;10.30;;;1.25;;
41721;SDS011;27407;24.142;-110.310;2024-02-23T00:51:01;16.00;;;1.48;;
41721;SDS011;27407;24.142;-110.310;2024-02-23T00:53:30;16.70;;;1.90;;
41721;SDS011;27407;24.142;-110.310;2024-02-23T00:55:57;13.98;;;1.52;;
41721;SDS011;27407;24.142;-110.310;2024-02-23T00:58:24;11.35;;;1.52;;
41721;SDS011;27407;24.142;-110.310;2024-02-23T01:00:50;17.63;;;1.88;;
41721;SDS011;27407;24.142;-110.310;2024-02-23T01:03:17;8.00;;;1.80;;
41721;SDS011;27407;24.142;-110.310;2024-02-23T01:05:43;11.20;;;1.83;;
41721;SDS011;27407;24.142;-110.310;2024-02-23T01:08:10;20.48;;;2.08;;
41721;SDS011;27407;24.142;-110.310;2024-02-23T01:10:37;11.10;;;1.60;;
41721;SDS011;27407;24.142;-110.310;2024-02-23T01:13:03;15.37;;;2.10;;
41721;SDS011;27407;24.142;-110.310;2024-02-23T01:15:30;24.42;;;3.22;;
41721;SDS011;27407;24.142;-110.310;2024-02-23T01:17:57;14.10;;;1.80;;
41721;SDS011;27407;24.142;-110.310;2024-02-23T01:20:23;19.80;;;2.07;;
41721;SDS011;27407;24.142;-110.310;2024-02-23T01:22:50;13.43;;;1.33;;
41721;SDS011;27407;24.142;-110.310;2024-02-23T01:25:16;18.00;;;2.00;;
41721;SDS011;27407;24.142;-110.310;2024-02-23T01:27:43;37.03;;;4.87;;
41721;SDS011;27407;24.142;-110.310;2024-02-23T01:30:10;22.97;;;2.90;;
41721;SDS011;27407;24.142;-110.310;2024-02-23T01:32:37;7.57;;;2.13;;
41721;SDS011;27407;24.142;-110.310;2024-02-23T01:35:07;18.40;;;2.23;;
41721;SDS011;27407;24.142;-110.310;2024-02-23T01:37:34;30.93;;;3.10;;
41721;SDS011;27407;24.142;-110.310;2024-02-23T01:40:09;21.07;;;2.10;;
41721;SDS011;27407;24.142;-110.310;2024-02-23T01:42:36;9.27;;;1.27;;
41721;SDS011;27407;24.142;-110.310;2024-02-23T01:45:03;21.13;;;2.17;;
41721;SDS011;27407;24.142;-110.310;2024-02-23T01:47:30;9.87;;;1.30;;
41721;SDS011;27407;24.142;-110.310;2024-02-23T01:50:00;9.87;;;1.40;;
41721;SDS011;27407;24.142;-110.310;2024-02-23T01:52:27;10.03;;;1.60;;
41721;SDS011;27407;24.142;-110.310;2024-02-23T01:54:54;14.93;;;2.13;;
41721;SDS011;27407;24.142;-110.310;2024-02-23T01:57:21;17.00;;;2.37;;
41721;SDS011;27407;24.142;-110.310;2024-02-23T01:59:48;9.30;;;1.70;;
41721;SDS011;27407;24.142;-110.310;2024-02-23T02:02:16;18.20;;;2.00;;
41721;SDS011;27407;24.142;-110.310;2024-02-23T02:04:42;11.67;;;1.77;;
41721;SDS011;27407;24.142;-110.310;2024-02-23T02:07:09;12.83;;;1.40;;
41721;SDS011;27407;24.142;-110.310;2024-02-23T02:09:36;8.57;;;1.40;;
41721;SDS011;27407;24.142;-110.310;2024-02-23T02:12:02;7.73;;;1.70;;
41721;SDS011;27407;24.142;-110.310;2024-02-23T02:14:29;12.50;;;1.87;;
41721;SDS011;27407;24.142;-110.310;2024-02-23T02:16:58;15.60;;;2.17;;
41721;SDS011;27407;24.142;-110.310;2024-02-23T02:19:25;17.77;;;1.73;;
41721;SDS011;27407;24.142;-110.310;2024-02-23T02:21:51;16.57;;;1.90;;
41721;SDS011;27407;24.142;-110.310;2024-02-23T02:24:18;15.20;;;2.10;;
41721;SDS011;27407;24.142;-110.310;2024-02-23T02:26:46;11.03;;;1.93;;
41721;SDS011;27407;24.142;-110.310;2024-02-23T02:29:15;10.47;;;1.70;;
41721;SDS011;27407;24.142;-110.310;2024-02-23T02:31:42;18.10;;;1.40;;
41721;SDS011;27407;24.142;-110.310;2024-02-23T02:34:08;11.83;;;1.30;;
41721;SDS011;27407;24.142;-110.310;2024-02-23T02:36:38;8.20;;;1.10;;
41721;SDS011;27407;24.142;-110.310;2024-02-23T02:39:04;15.63;;;1.37;;
41721;SDS011;27407;24.142;-110.310;2024-02-23T02:41:33;8.87;;;1.43;;
41721;SDS011;27407;24.142;-110.310;2024-02-23T02:43:59;14.90;;;1.70;;
41721;SDS011;27407;24.142;-110.310;2024-02-23T02:46:26;10.97;;;1.30;;
41721;SDS011;27407;24.142;-110.310;2024-02-23T02:48:52;10.77;;;1.37;;
41721;SDS011;27407;24.142;-110.310;2024-02-23T02:51:19;18.27;;;1.73;;
41721;SDS011;27407;24.142;-110.310;2024-02-23T02:53:46;13.37;;;1.73;;
41721;SDS011;27407;24.142;-110.310;2024-02-23T02:56:13;6.40;;;1.50;;
41721;SDS011;27407;24.142;-110.310;2024-02-23T02:58:39;18.10;;;1.53;;
41721;SDS011;27407;24.142;-110.310;2024-02-23T03:01:06;15.50;;;1.77;;
41721;SDS011;27407;24.142;-110.310;2024-02-23T03:03:32;14.40;;;1.60;;
41721;SDS011;27407;24.142;-110.310;2024-02-23T03:05:59;15.20;;;1.67;;
41721;SDS011;27407;24.142;-110.310;2024-02-23T03:08:25;6.60;;;1.60;;
41721;SDS011;27407;24.142;-110.310;2024-02-23T03:10:52;13.20;;;1.70;;
41721;SDS011;27407;24.142;-110.310;2024-02-23T03:13:19;7.57;;;1.43;;
41721;SDS011;27407;24.142;-110.310;2024-02-23T03:15:45;9.77;;;1.77;;
41721;SDS011;27407;24.142;-110.310;2024-02-23T03:18:12;7.97;;;1.37;;
41721;SDS011;27407;24.142;-110.310;2024-02-23T03:20:41;10.43;;;1.50;;
41721;SDS011;27407;24.142;-110.310;2024-02-23T03:23:07;11.10;;;2.07;;
41721;SDS011;27407;24.142;-110.310;2024-02-23T03:25:34;8.67;;;1.80;;
41721;SDS011;27407;24.142;-110.310;2024-02-23T03:28:01;11.03;;;1.80;;
41721;SDS011;27407;24.142;-110.310;2024-02-23T03:30:27;9.73;;;1.57;;
41721;SDS011;27407;24.142;-110.310;2024-02-23T03:32:54;9.97;;;1.33;;
41721;SDS011;27407;24.142;-110.310;2024-02-23T03:35:20;5.77;;;1.30;;
41721;SDS011;27407;24.142;-110.310;2024-02-23T03:37:47;11.00;;;1.53;;
41721;SDS011;27407;24.142;-110.310;2024-02-23T03:40:14;11.53;;;1.97;;
41721;SDS011;27407;24.142;-110.310;2024-02-23T03:42:40;8.70;;;1.23;;
41721;SDS011;27407;24.142;-110.310;2024-02-23T03:45:07;8.77;;;1.40;;
41721;SDS011;27407;24.142;-110.310;2024-02-23T03:47:34;8.37;;;1.47;;
41721;SDS011;27407;24.142;-110.310;2024-02-23T03:50:00;14.20;;;1.57;;
41721;SDS011;27407;24.142;-110.310;2024-02-23T03:52:27;9.17;;;1.30;;
41721;SDS011;27407;24.142;-110.310;2024-02-23T03:54:54;8.30;;;1.07;;
41721;SDS011;27407;24.142;-110.310;2024-02-23T03:57:20;11.03;;;1.47;;
41721;SDS011;27407;24.142;-110.310;2024-02-23T03:59:54;10.57;;;1.13;;
41721;SDS011;27407;24.142;-110.310;2024-02-23T04:02:21;12.80;;;1.47;;
41721;SDS011;27407;24.142;-110.310;2024-02-23T04:04:48;10.00;;;0.77;;
41721;SDS011;27407;24.142;-110.310;2024-02-23T04:07:15;8.37;;;1.07;;
41721;SDS011;27407;24.142;-110.310;2024-02-23T04:09:42;5.57;;;1.17;;
41721;SDS011;27407;24.142;-110.310;2024-02-23T04:12:08;9.27;;;1.03;;
41721;SDS011;27407;24.142;-110.310;2024-02-23T04:14:35;5.60;;;1.00;;
41721;SDS011;27407;24.142;-110.310;2024-02-23T04:17:02;14.77;;;1.83;;
41721;SDS011;27407;24.142;-110.310;2024-02-23T04:19:29;6.93;;;1.10;;
41721;SDS011;27407;24.142;-110.310;2024-02-23T04:21:56;8.00;;;1.20;;
41721;SDS011;27407;24.142;-110.310;2024-02-23T04:24:23;8.87;;;1.27;;
41721;SDS011;27407;24.142;-110.310;2024-02-23T04:26:49;11.67;;;1.37;;
41721;SDS011;27407;24.142;-110.310;2024-02-23T04:29:16;10.57;;;1.10;;
41721;SDS011;27407;24.142;-110.310;2024-02-23T04:31:42;11.73;;;1.40;;
41721;SDS011;27407;24.142;-110.310;2024-02-23T04:34:09;5.67;;;0.93;;
41721;SDS011;27407;24.142;-110.310;2024-02-23T04:36:36;7.87;;;1.37;;
41721;SDS011;27407;24.142;-110.310;2024-02-23T04:39:02;6.20;;;1.10;;
41721;SDS011;27407;24.142;-110.310;2024-02-23T04:41:29;11.30;;;1.40;;
41721;SDS011;27407;24.142;-110.310;2024-02-23T04:43:56;8.17;;;0.90;;
41721;SDS011;27407;24.142;-110.310;2024-02-23T04:46:25;5.20;;;0.73;;
41721;SDS011;27407;24.142;-110.310;2024-02-23T04:48:52;11.07;;;1.33;;
41721;SDS011;27407;24.142;-110.310;2024-02-23T04:51:19;7.20;;;0.90;;
41721;SDS011;27407;24.142;-110.310;2024-02-23T04:53:47;7.90;;;1.50;;
41721;SDS011;27407;24.142;-110.310;2024-02-23T04:56:15;16.77;;;1.60;;
41721;SDS011;27407;24.142;-110.310;2024-02-23T04:58:42;14.57;;;1.50;;
41721;SDS011;27407;24.142;-110.310;2024-02-23T05:01:10;14.30;;;2.70;;
41721;SDS011;27407;24.142;-110.310;2024-02-23T05:03:37;17.27;;;3.80;;
41721;SDS011;27407;24.142;-110.310;2024-02-23T05:06:03;15.80;;;5.20;;
41721;SDS011;27407;24.142;-110.310;2024-02-23T05:08:30;18.07;;;5.00;;
41721;SDS011;27407;24.142;-110.310;2024-02-23T05:10:57;23.43;;;3.87;;
41721;SDS011;27407;24.142;-110.310;2024-02-23T05:13:26;9.27;;;3.60;;
41721;SDS011;27407;24.142;-110.310;2024-02-23T05:15:55;19.27;;;3.67;;
41721;SDS011;27407;24.142;-110.310;2024-02-23T05:18:22;7.73;;;2.80;;
41721;SDS011;27407;24.142;-110.310;2024-02-23T05:20:49;13.37;;;3.07;;
41721;SDS011;27407;24.142;-110.310;2024-02-23T05:23:15;19.20;;;3.90;;
41721;SDS011;27407;24.142;-110.310;2024-02-23T05:25:42;13.30;;;5.00;;
41721;SDS011;27407;24.142;-110.310;2024-02-23T05:28:09;17.87;;;5.40;;
41721;SDS011;27407;24.142;-110.310;2024-02-23T05:30:35;20.60;;;6.50;;
41721;SDS011;27407;24.142;-110.310;2024-02-23T05:33:02;20.60;;;8.37;;
41721;SDS011;27407;24.142;-110.310;2024-02-23T05:35:29;32.60;;;9.33;;
41721;SDS011;27407;24.142;-110.310;2024-02-23T05:37:56;25.93;;;9.60;;
41721;SDS011;27407;24.142;-110.310;2024-02-23T05:40:22;31.13;;;11.17;;
41721;SDS011;27407;24.142;-110.310;2024-02-23T05:42:49;27.17;;;10.37;;
41721;SDS011;27407;24.142;-110.310;2024-02-23T05:45:15;24.17;;;9.67;;
41721;SDS011;27407;24.142;-110.310;2024-02-23T05:47:42;38.30;;;9.53;;
41721;SDS011;27407;24.142;-110.310;2024-02-23T05:50:09;32.77;;;7.53;;
41721;SDS011;27407;24.142;-110.310;2024-02-23T05:52:35;21.63;;;6.47;;
41721;SDS011;27407;24.142;-110.310;2024-02-23T05:55:05;19.47;;;6.73;;
41721;SDS011;27407;24.142;-110.310;2024-02-23T05:57:32;13.93;;;4.57;;
41721;SDS011;27407;24.142;-110.310;2024-02-23T05:59:59;19.20;;;4.90;;
41721;SDS011;27407;24.142;-110.310;2024-02-23T06:02:25;14.83;;;3.47;;
41721;SDS011;27407;24.142;-110.310;2024-02-23T06:04:52;9.47;;;2.93;;
41721;SDS011;27407;24.142;-110.310;2024-02-23T06:07:18;13.93;;;2.33;;
41721;SDS011;27407;24.142;-110.310;2024-02-23T06:09:47;21.87;;;3.57;;
41721;SDS011;27407;24.142;-110.310;2024-02-23T06:12:14;9.60;;;2.30;;
41721;SDS011;27407;24.142;-110.310;2024-02-23T06:14:40;11.30;;;1.73;;
41721;SDS011;27407;24.142;-110.310;2024-02-23T06:17:07;6.83;;;2.00;;
41721;SDS011;27407;24.142;-110.310;2024-02-23T06:19:33;15.60;;;2.33;;
41721;SDS011;27407;24.142;-110.310;2024-02-23T06:22:00;14.23;;;2.50;;
41721;SDS011;27407;24.142;-110.310;2024-02-23T06:24:27;8.17;;;2.00;;
41721;SDS011;27407;24.142;-110.310;2024-02-23T06:26:53;10.77;;;1.70;;
41721;SDS011;27407;24.142;-110.310;2024-02-23T06:29:20;15.47;;;2.33;;
41721;SDS011;27407;24.142;-110.310;2024-02-23T06:31:46;7.13;;;2.63;;
41721;SDS011;27407;24.142;-110.310;2024-02-23T06:34:15;10.93;;;2.60;;
41721;SDS011;27407;24.142;-110.310;2024-02-23T06:36:42;7.50;;;2.63;;
41721;SDS011;27407;24.142;-110.310;2024-02-23T06:39:08;11.23;;;2.33;;
41721;SDS011;27407;24.142;-110.310;2024-02-23T06:41:36;12.37;;;1.93;;
41721;SDS011;27407;24.142;-110.310;2024-02-23T06:44:05;11.67;;;2.33;;
41721;SDS011;27407;24.142;-110.310;2024-02-23T06:46:32;5.83;;;2.00;;
41721;SDS011;27407;24.142;-110.310;2024-02-23T06:48:59;7.43;;;2.23;;
41721;SDS011;27407;24.142;-110.310;2024-02-23T06:51:25;6.97;;;1.80;;
41721;SDS011;27407;24.142;-110.310;2024-02-23T06:53:52;9.40;;;2.30;;
41721;SDS011;27407;24.142;-110.310;2024-02-23T06:56:20;6.70;;;1.63;;
41721;SDS011;27407;24.142;-110.310;2024-02-23T06:58:46;7.37;;;1.90;;
41721;SDS011;27407;24.142;-110.310;2024-02-23T07:01:13;19.53;;;2.20;;
41721;SDS011;27407;24.142;-110.310;2024-02-23T07:03:40;10.73;;;1.67;;
41721;SDS011;27407;24.142;-110.310;2024-02-23T07:06:08;13.47;;;2.00;;
41721;SDS011;27407;24.142;-110.310;2024-02-23T07:08:38;5.67;;;1.67;;
41721;SDS011;27407;24.142;-110.310;2024-02-23T07:11:04;12.77;;;1.67;;
41721;SDS011;27407;24.142;-110.310;2024-02-23T07:13:31;11.93;;;1.93;;
41721;SDS011;27407;24.142;-110.310;2024-02-23T07:15:59;9.90;;;2.13;;
41721;SDS011;27407;24.142;-110.310;2024-02-23T07:18:26;14.47;;;2.53;;
41721;SDS011;27407;24.142;-110.310;2024-02-23T07:20:53;11.97;;;1.60;;
41721;SDS011;27407;24.142;-110.310;2024-02-23T07:23:20;8.43;;;2.10;;
41721;SDS011;27407;24.142;-110.310;2024-02-23T07:25:48;21.30;;;2.33;;
41721;SDS011;27407;24.142;-110.310;2024-02-23T07:28:16;14.23;;;1.93;;
41721;SDS011;27407;24.142;-110.310;2024-02-23T07:30:45;9.10;;;1.80;;
41721;SDS011;27407;24.142;-110.310;2024-02-23T07:33:12;6.63;;;2.23;;
41721;SDS011;27407;24.142;-110.310;2024-02-23T07:35:38;10.13;;;1.37;;
41721;SDS011;27407;24.142;-110.310;2024-02-23T07:38:05;20.33;;;2.47;;
41721;SDS011;27407;24.142;-110.310;2024-02-23T07:40:32;12.43;;;1.50;;
41721;SDS011;27407;24.142;-110.310;2024-02-23T07:42:58;9.93;;;1.53;;
41721;SDS011;27407;24.142;-110.310;2024-02-23T07:45:25;23.40;;;2.93;;
41721;SDS011;27407;24.142;-110.310;2024-02-23T07:47:51;9.10;;;2.17;;
41721;SDS011;27407;24.142;-110.310;2024-02-23T07:50:18;5.87;;;1.47;;
41721;SDS011;27407;24.142;-110.310;2024-02-23T07:52:45;6.83;;;1.70;;
41721;SDS011;27407;24.142;-110.310;2024-02-23T07:55:11;17.40;;;1.80;;
41721;SDS011;27407;24.142;-110.310;2024-02-23T07:57:38;23.63;;;1.90;;
41721;SDS011;27407;24.142;-110.310;2024-02-23T08:00:05;24.53;;;2.20;;
41721;SDS011;27407;24.142;-110.310;2024-02-23T08:02:35;18.23;;;2.27;;
41721;SDS011;27407;24.142;-110.310;2024-02-23T08:05:02;25.73;;;2.37;;
41721;SDS011;27407;24.142;-110.310;2024-02-23T08:07:29;13.10;;;2.23;;
41721;SDS011;27407;24.142;-110.310;2024-02-23T08:09:56;13.60;;;1.83;;
41721;SDS011;27407;24.142;-110.310;2024-02-23T08:12:22;7.30;;;1.60;;
41721;SDS011;27407;24.142;-110.310;2024-02-23T08:14:49;6.53;;;1.03;;
41721;SDS011;27407;24.142;-110.310;2024-02-23T08:17:18;16.73;;;1.60;;
41721;SDS011;27407;24.142;-110.310;2024-02-23T08:19:46;8.93;;;1.20;;
41721;SDS011;27407;24.142;-110.310;2024-02-23T08:22:12;5.07;;;1.07;;
41721;SDS011;27407;24.142;-110.310;2024-02-23T08:24:39;5.37;;;1.20;;
41721;SDS011;27407;24.142;-110.310;2024-02-23T08:27:05;5.40;;;1.20;;
41721;SDS011;27407;24.142;-110.310;2024-02-23T08:29:32;7.30;;;1.00;;
41721;SDS011;27407;24.142;-110.310;2024-02-23T08:31:59;4.03;;;0.90;;
41721;SDS011;27407;24.142;-110.310;2024-02-23T08:34:25;7.03;;;1.00;;
41721;SDS011;27407;24.142;-110.310;2024-02-23T08:36:52;6.83;;;0.77;;
41721;SDS011;27407;24.142;-110.310;2024-02-23T08:39:19;4.37;;;0.73;;
41721;SDS011;27407;24.142;-110.310;2024-02-23T08:41:47;6.57;;;1.13;;
41721;SDS011;27407;24.142;-110.310;2024-02-23T08:44:14;4.00;;;0.73;;
41721;SDS011;27407;24.142;-110.310;2024-02-23T08:46:40;2.87;;;0.80;;
41721;SDS011;27407;24.142;-110.310;2024-02-23T08:49:07;6.37;;;1.23;;
41721;SDS011;27407;24.142;-110.310;2024-02-23T08:51:34;4.63;;;1.53;;
41721;SDS011;27407;24.142;-110.310;2024-02-23T08:54:01;3.40;;;0.67;;
41721;SDS011;27407;24.142;-110.310;2024-02-23T08:56:30;3.17;;;0.60;;
41721;SDS011;27407;24.142;-110.310;2024-02-23T08:58:57;4.27;;;0.70;;
41721;SDS011;27407;24.142;-110.310;2024-02-23T09:01:24;2.83;;;0.67;;
41721;SDS011;27407;24.142;-110.310;2024-02-23T09:03:50;8.53;;;1.10;;
41721;SDS011;27407;24.142;-110.310;2024-02-23T09:06:17;5.17;;;0.90;;
41721;SDS011;27407;24.142;-110.310;2024-02-23T09:08:44;7.90;;;1.40;;
41721;SDS011;27407;24.142;-110.310;2024-02-23T09:11:11;4.37;;;0.77;;
41721;SDS011;27407;24.142;-110.310;2024-02-23T09:13:39;3.37;;;0.87;;
41721;SDS011;27407;24.142;-110.310;2024-02-23T09:16:07;4.57;;;0.70;;
41721;SDS011;27407;24.142;-110.310;2024-02-23T09:18:34;4.53;;;0.80;;
41721;SDS011;27407;24.142;-110.310;2024-02-23T09:21:01;5.17;;;1.23;;
41721;SDS011;27407;24.142;-110.310;2024-02-23T09:23:28;2.93;;;0.90;;
41721;SDS011;27407;24.142;-110.310;2024-02-23T09:25:54;6.40;;;0.83;;
41721;SDS011;27407;24.142;-110.310;2024-02-23T09:28:21;4.93;;;0.90;;
41721;SDS011;27407;24.142;-110.310;2024-02-23T09:30:48;2.67;;;0.70;;
41721;SDS011;27407;24.142;-110.310;2024-02-23T09:33:14;11.17;;;1.10;;
41721;SDS011;27407;24.142;-110.310;2024-02-23T09:35:41;7.40;;;0.90;;
41721;SDS011;27407;24.142;-110.310;2024-02-23T09:38:07;8.23;;;0.90;;
41721;SDS011;27407;24.142;-110.310;2024-02-23T09:40:34;3.27;;;0.60;;
41721;SDS011;27407;24.142;-110.310;2024-02-23T09:43:01;8.60;;;1.33;;
41721;SDS011;27407;24.142;-110.310;2024-02-23T09:45:28;2.10;;;0.60;;
41721;SDS011;27407;24.142;-110.310;2024-02-23T09:47:56;4.20;;;0.50;;
41721;SDS011;27407;24.142;-110.310;2024-02-23T09:50:24;5.13;;;0.43;;
41721;SDS011;27407;24.142;-110.310;2024-02-23T09:52:51;6.90;;;0.90;;
41721;SDS011;27407;24.142;-110.310;2024-02-23T09:55:17;3.90;;;0.60;;
41721;SDS011;27407;24.142;-110.310;2024-02-23T09:57:47;1.20;;;0.40;;
41721;SDS011;27407;24.142;-110.310;2024-02-23T10:00:17;4.90;;;0.73;;
41721;SDS011;27407;24.142;-110.310;2024-02-23T10:02:44;2.20;;;0.90;;
41721;SDS011;27407;24.142;-110.310;2024-02-23T10:05:11;8.50;;;0.83;;
41721;SDS011;27407;24.142;-110.310;2024-02-23T10:07:39;10.17;;;1.00;;
41721;SDS011;27407;24.142;-110.310;2024-02-23T10:10:06;3.13;;;0.67;;
41721;SDS011;27407;24.142;-110.310;2024-02-23T10:12:34;6.17;;;1.07;;
41721;SDS011;27407;24.142;-110.310;2024-02-23T10:15:01;2.43;;;0.50;;
41721;SDS011;27407;24.142;-110.310;2024-02-23T10:17:31;4.27;;;0.97;;
41721;SDS011;27407;24.142;-110.310;2024-02-23T10:20:01;8.13;;;0.93;;
41721;SDS011;27407;24.142;-110.310;2024-02-23T10:22:33;3.50;;;0.77;;
41721;SDS011;27407;24.142;-110.310;2024-02-23T10:25:01;2.30;;;0.60;;
41721;SDS011;27407;24.142;-110.310;2024-02-23T10:27:28;6.37;;;0.70;;
41721;SDS011;27407;24.142;-110.310;2024-02-23T10:29:54;6.53;;;0.57;;
41721;SDS011;27407;24.142;-110.310;2024-02-23T10:32:21;2.77;;;0.50;;
41721;SDS011;27407;24.142;-110.310;2024-02-23T10:34:49;4.10;;;0.90;;
41721;SDS011;27407;24.142;-110.310;2024-02-23T10:37:18;4.63;;;0.90;;
41721;SDS011;27407;24.142;-110.310;2024-02-23T10:39:44;5.17;;;0.50;;
41721;SDS011;27407;24.142;-110.310;2024-02-23T10:42:12;1.70;;;0.67;;
41721;SDS011;27407;24.142;-110.310;2024-02-23T10:44:39;5.00;;;0.70;;
41721;SDS011;27407;24.142;-110.310;2024-02-23T10:47:06;4.33;;;0.80;;
41721;SDS011;27407;24.142;-110.310;2024-02-23T10:49:33;4.37;;;1.07;;
41721;SDS011;27407;24.142;-110.310;2024-02-23T10:52:02;5.83;;;0.90;;
41721;SDS011;27407;24.142;-110.310;2024-02-23T10:54:29;4.93;;;0.93;;
41721;SDS011;27407;24.142;-110.310;2024-02-23T10:56:58;5.27;;;0.80;;
41721;SDS011;27407;24.142;-110.310;2024-02-23T10:59:25;5.50;;;0.70;;
41721;SDS011;27407;24.142;-110.310;2024-02-23T11:01:54;7.83;;;0.87;;
41721;SDS011;27407;24.142;-110.310;2024-02-23T11:04:24;5.03;;;0.70;;
41721;SDS011;27407;24.142;-110.310;2024-02-23T11:06:56;2.70;;;0.80;;
41721;SDS011;27407;24.142;-110.310;2024-02-23T11:09:31;11.07;;;0.83;;
41721;SDS011;27407;24.142;-110.310;2024-02-23T11:11:58;2.70;;;0.57;;
41721;SDS011;27407;24.142;-110.310;2024-02-23T11:14:37;2.33;;;0.90;;
41721;SDS011;27407;24.142;-110.310;2024-02-23T11:17:04;4.47;;;0.57;;
41721;SDS011;27407;24.142;-110.310;2024-02-23T11:19:32;4.50;;;0.60;;
41721;SDS011;27407;24.142;-110.310;2024-02-23T11:22:00;4.27;;;0.73;;
41721;SDS011;27407;24.142;-110.310;2024-02-23T11:24:31;3.53;;;0.60;;
41721;SDS011;27407;24.142;-110.310;2024-02-23T11:26:58;3.27;;;0.80;;
41721;SDS011;27407;24.142;-110.310;2024-02-23T11:29:26;6.17;;;0.73;;
41721;SDS011;27407;24.142;-110.310;2024-02-23T11:31:55;4.50;;;0.57;;
41721;SDS011;27407;24.142;-110.310;2024-02-23T11:34:26;4.07;;;0.50;;
41721;SDS011;27407;24.142;-110.310;2024-02-23T11:36:53;5.63;;;1.53;;
41721;SDS011;27407;24.142;-110.310;2024-02-23T11:39:22;6.03;;;0.60;;
41721;SDS011;27407;24.142;-110.310;2024-02-23T11:41:49;4.43;;;0.70;;
41721;SDS011;27407;24.142;-110.310;2024-02-23T11:44:16;3.47;;;0.90;;
41721;SDS011;27407;24.142;-110.310;2024-02-23T11:46:43;3.57;;;0.80;;
41721;SDS011;27407;24.142;-110.310;2024-02-23T11:49:10;7.97;;;0.70;;
41721;SDS011;27407;24.142;-110.310;2024-02-23T11:51:37;7.63;;;0.90;;
41721;SDS011;27407;24.142;-110.310;2024-02-23T11:54:03;4.17;;;0.57;;
41721;SDS011;27407;24.142;-110.310;2024-02-23T11:56:30;4.43;;;0.67;;
41721;SDS011;27407;24.142;-110.310;2024-02-23T11:58:57;2.80;;;0.60;;
41721;SDS011;27407;24.142;-110.310;2024-02-23T12:01:23;7.03;;;0.70;;
41721;SDS011;27407;24.142;-110.310;2024-02-23T12:03:50;6.47;;;0.83;;
41721;SDS011;27407;24.142;-110.310;2024-02-23T12:06:17;10.77;;;0.97;;
41721;SDS011;27407;24.142;-110.310;2024-02-23T12:08:43;16.03;;;1.83;;
41721;SDS011;27407;24.142;-110.310;2024-02-23T12:11:11;10.17;;;1.30;;
41721;SDS011;27407;24.142;-110.310;2024-02-23T12:13:39;8.37;;;1.10;;
41721;SDS011;27407;24.142;-110.310;2024-02-23T12:16:09;3.97;;;0.97;;
41721;SDS011;27407;24.142;-110.310;2024-02-23T12:18:36;15.53;;;1.73;;
41721;SDS011;27407;24.142;-110.310;2024-02-23T12:21:06;6.80;;;0.97;;
41721;SDS011;27407;24.142;-110.310;2024-02-23T12:23:41;5.40;;;0.87;;
41721;SDS011;27407;24.142;-110.310;2024-02-23T12:26:08;5.00;;;0.70;;
41721;SDS011;27407;24.142;-110.310;2024-02-23T12:28:36;3.00;;;0.67;;
41721;SDS011;27407;24.142;-110.310;2024-02-23T12:31:03;3.73;;;1.10;;
41721;SDS011;27407;24.142;-110.310;2024-02-23T12:33:34;7.30;;;1.10;;
41721;SDS011;27407;24.142;-110.310;2024-02-23T12:36:02;4.20;;;1.00;;
41721;SDS011;27407;24.142;-110.310;2024-02-23T12:38:29;11.30;;;1.27;;
41721;SDS011;27407;24.142;-110.310;2024-02-23T12:40:56;14.63;;;1.67;;
41721;SDS011;27407;24.142;-110.310;2024-02-23T12:43:23;11.73;;;1.27;;
41721;SDS011;27407;24.142;-110.310;2024-02-23T12:45:50;6.57;;;1.10;;
41721;SDS011;27407;24.142;-110.310;2024-02-23T12:48:21;10.93;;;1.20;;
41721;SDS011;27407;24.142;-110.310;2024-02-23T12:50:48;26.20;;;2.00;;
41721;SDS011;27407;24.142;-110.310;2024-02-23T12:56:05;6.30;;;0.90;;
41721;SDS011;27407;24.142;-110.310;2024-02-23T12:58:36;7.10;;;0.90;;
41721;SDS011;27407;24.142;-110.310;2024-02-23T13:01:04;5.00;;;1.20;;
41721;SDS011;27407;24.142;-110.310;2024-02-23T13:03:32;4.43;;;0.97;;
41721;SDS011;27407;24.142;-110.310;2024-02-23T13:06:00;11.20;;;1.20;;
41721;SDS011;27407;24.142;-110.310;2024-02-23T13:08:27;2.53;;;0.77;;
41721;SDS011;27407;24.142;-110.310;2024-02-23T13:10:54;9.40;;;1.10;;
41721;SDS011;27407;24.142;-110.310;2024-02-23T13:13:21;8.00;;;1.07;;
41721;SDS011;27407;24.142;-110.310;2024-02-23T13:15:49;13.13;;;1.33;;
41721;SDS011;27407;24.142;-110.310;2024-02-23T13:18:17;9.70;;;1.50;;
41721;SDS011;27407;24.142;-110.310;2024-02-23T13:20:44;21.87;;;2.00;;
41721;SDS011;27407;24.142;-110.310;2024-02-23T13:23:12;7.70;;;1.20;;
41721;SDS011;27407;24.142;-110.310;2024-02-23T13:25:39;11.17;;;0.97;;
41721;SDS011;27407;24.142;-110.310;2024-02-23T13:28:09;11.70;;;1.40;;
41721;SDS011;27407;24.142;-110.310;2024-02-23T13:30:36;8.77;;;0.90;;
41721;SDS011;27407;24.142;-110.310;2024-02-23T13:33:04;7.33;;;1.43;;
41721;SDS011;27407;24.142;-110.310;2024-02-23T13:35:31;5.20;;;1.53;;
41721;SDS011;27407;24.142;-110.310;2024-02-23T13:37:59;7.90;;;1.23;;
41721;SDS011;27407;24.142;-110.310;2024-02-23T13:40:36;8.93;;;1.87;;
41721;SDS011;27407;24.142;-110.310;2024-02-23T13:43:02;33.33;;;2.60;;
41721;SDS011;27407;24.142;-110.310;2024-02-23T13:45:29;18.57;;;1.90;;
41721;SDS011;27407;24.142;-110.310;2024-02-23T13:50:24;14.23;;;1.50;;
41721;SDS011;27407;24.142;-110.310;2024-02-23T13:52:51;19.90;;;2.33;;
41721;SDS011;27407;24.142;-110.310;2024-02-23T13:55:35;12.10;;;1.73;;
41721;SDS011;27407;24.142;-110.310;2024-02-23T13:58:02;21.13;;;1.77;;
41721;SDS011;27407;24.142;-110.310;2024-02-23T14:00:33;29.40;;;2.70;;
41721;SDS011;27407;24.142;-110.310;2024-02-23T14:02:59;19.27;;;1.80;;
41721;SDS011;27407;24.142;-110.310;2024-02-23T14:05:26;17.70;;;2.47;;
41721;SDS011;27407;24.142;-110.310;2024-02-23T14:07:53;62.00;;;5.33;;
41721;SDS011;27407;24.142;-110.310;2024-02-23T14:10:20;89.63;;;7.30;;